sensor_id;sensor_type;location;lat;lon;timestamp;pressure;altitude;pressure_sealevel;temperature;humidity
75051;BME280;63628;47.656;11.310;2023-04-10T00:00:19;95428.69;;;6.08;70.23
75051;BME280;63628;47.656;11.310;2023-04-10T00:02:47;95428.78;;;7.05;68.29
75051;BME280;63628;47.656;11.310;2023-04-10T00:05:15;95426.25;;;7.18;67.99
75051;BME280;63628;47.656;11.310;2023-04-10T00:07:41;95427.72;;;7.27;66.95
75051;BME280;63628;47.656;11.310;2023-04-10T00:10:08;95429.34;;;7.28;67.14
75051;BME280;63628;47.656;11.310;2023-04-10T00:12:36;95423.84;;;7.23;66.80
75051;BME280;63628;47.656;11.310;2023-04-10T00:15:03;95428.13;;;7.30;66.75
75051;BME280;63628;47.656;11.310;2023-04-10T00:17:30;95423.66;;;7.24;67.23
75051;BME280;63628;47.656;11.310;2023-04-10T00:19:58;95417.09;;;6.23;68.96
75051;BME280;63628;47.656;11.310;2023-04-10T00:22:26;95417.78;;;6.32;70.07
75051;BME280;63628;47.656;11.310;2023-04-10T00:24:52;95427.78;;;4.02;64.26
75051;BME280;63628;47.656;11.310;2023-04-10T00:27:19;95414.41;;;6.66;68.60
75051;BME280;63628;47.656;11.310;2023-04-10T00:29:46;95423.19;;;6.02;69.46
75051;BME280;63628;47.656;11.310;2023-04-10T00:32:13;95412.50;;;6.88;67.97
75051;BME280;63628;47.656;11.310;2023-04-10T00:34:39;95402.25;;;6.99;67.57
75051;BME280;63628;47.656;11.310;2023-04-10T00:37:07;95407.69;;;6.91;67.03
75051;BME280;63628;47.656;11.310;2023-04-10T00:39:34;95403.88;;;7.00;67.09
75051;BME280;63628;47.656;11.310;2023-04-10T00:42:01;95403.69;;;7.02;67.28
75051;BME280;63628;47.656;11.310;2023-04-10T00:44:27;95395.66;;;6.20;68.77
75051;BME280;63628;47.656;11.310;2023-04-10T00:46:54;95399.34;;;6.88;67.90
75051;BME280;63628;47.656;11.310;2023-04-10T00:49:21;95395.56;;;6.97;67.21
75051;BME280;63628;47.656;11.310;2023-04-10T00:51:48;95389.69;;;6.95;67.71
75051;BME280;63628;47.656;11.310;2023-04-10T00:54:16;95390.97;;;6.71;59.71
75051;BME280;63628;47.656;11.310;2023-04-10T00:56:44;95387.66;;;6.56;68.51
75051;BME280;63628;47.656;11.310;2023-04-10T00:59:12;95380.03;;;6.40;57.42
75051;BME280;63628;47.656;11.310;2023-04-10T01:01:39;95378.50;;;6.86;67.33
75051;BME280;63628;47.656;11.310;2023-04-10T01:04:06;95388.69;;;3.55;73.89
75051;BME280;63628;47.656;11.310;2023-04-10T01:06:40;95369.69;;;6.38;69.08
75051;BME280;63628;47.656;11.310;2023-04-10T01:09:26;95366.06;;;6.67;64.04
75051;BME280;63628;47.656;11.310;2023-04-10T01:11:59;95385.66;;;3.43;70.86
75051;BME280;63628;47.656;11.310;2023-04-10T01:14:34;95366.72;;;6.48;69.45
75051;BME280;63628;47.656;11.310;2023-04-10T01:17:06;95370.50;;;6.66;67.79
75051;BME280;63628;47.656;11.310;2023-04-10T01:19:50;95365.22;;;6.60;67.86
75051;BME280;63628;47.656;11.310;2023-04-10T01:22:28;95354.47;;;6.55;66.52
75051;BME280;63628;47.656;11.310;2023-04-10T01:25:18;95359.97;;;6.60;67.60
75051;BME280;63628;47.656;11.310;2023-04-10T01:28:01;95362.19;;;6.35;68.53
75051;BME280;63628;47.656;11.310;2023-04-10T01:30:31;95367.84;;;5.25;60.64
75051;BME280;63628;47.656;11.310;2023-04-10T01:33:00;95370.03;;;3.58;75.63
75051;BME280;63628;47.656;11.310;2023-04-10T01:35:29;95367.09;;;4.66;72.22
75051;BME280;63628;47.656;11.310;2023-04-10T01:37:58;95364.69;;;6.15;69.11
75051;BME280;63628;47.656;11.310;2023-04-10T01:40:28;95365.41;;;5.09;72.58
75051;BME280;63628;47.656;11.310;2023-04-10T01:42:55;95360.38;;;5.65;61.83
75051;BME280;63628;47.656;11.310;2023-04-10T01:45:26;95354.75;;;6.39;68.54
75051;BME280;63628;47.656;11.310;2023-04-10T01:47:54;95358.25;;;4.00;65.62
75051;BME280;63628;47.656;11.310;2023-04-10T01:50:21;95343.66;;;6.15;69.65
75051;BME280;63628;47.656;11.310;2023-04-10T01:52:50;95352.56;;;5.50;69.79
75051;BME280;63628;47.656;11.310;2023-04-10T01:55:18;95341.75;;;6.30;68.14
75051;BME280;63628;47.656;11.310;2023-04-10T01:57:46;95337.88;;;5.34;60.21
75051;BME280;63628;47.656;11.310;2023-04-10T02:00:14;95349.13;;;2.10;72.06
75051;BME280;63628;47.656;11.310;2023-04-10T02:02:42;95343.13;;;5.56;71.10
75051;BME280;63628;47.656;11.310;2023-04-10T02:05:10;95336.16;;;6.12;68.39
75051;BME280;63628;47.656;11.310;2023-04-10T02:07:41;95331.44;;;6.29;68.43
75051;BME280;63628;47.656;11.310;2023-04-10T02:10:12;95334.88;;;4.87;60.56
75051;BME280;63628;47.656;11.310;2023-04-10T02:12:44;95341.19;;;5.64;69.90
75051;BME280;63628;47.656;11.310;2023-04-10T02:15:12;95334.41;;;6.19;68.22
75051;BME280;63628;47.656;11.310;2023-04-10T02:17:39;95341.94;;;6.29;67.82
75051;BME280;63628;47.656;11.310;2023-04-10T02:20:07;95337.31;;;6.31;68.27
75051;BME280;63628;47.656;11.310;2023-04-10T02:22:39;95324.69;;;6.20;63.97
75051;BME280;63628;47.656;11.310;2023-04-10T02:25:09;95343.59;;;3.22;65.22
75051;BME280;63628;47.656;11.310;2023-04-10T02:27:36;95348.03;;;1.64;72.37
75051;BME280;63628;47.656;11.310;2023-04-10T02:30:04;95345.06;;;5.11;71.80
75051;BME280;63628;47.656;11.310;2023-04-10T02:32:31;95337.25;;;5.96;69.12
75051;BME280;63628;47.656;11.310;2023-04-10T02:35:01;95344.47;;;5.30;68.37
75051;BME280;63628;47.656;11.310;2023-04-10T02:37:28;95334.69;;;6.03;68.68
75051;BME280;63628;47.656;11.310;2023-04-10T02:39:56;95331.91;;;6.11;65.38
75051;BME280;63628;47.656;11.310;2023-04-10T02:42:22;95346.28;;;4.35;73.57
75051;BME280;63628;47.656;11.310;2023-04-10T02:44:49;95334.22;;;5.78;69.66
75051;BME280;63628;47.656;11.310;2023-04-10T02:47:16;95342.56;;;6.03;68.88
75051;BME280;63628;47.656;11.310;2023-04-10T02:49:44;95344.31;;;4.81;69.15
75051;BME280;63628;47.656;11.310;2023-04-10T02:52:10;95338.28;;;5.95;68.57
75051;BME280;63628;47.656;11.310;2023-04-10T02:54:37;95348.88;;;3.45;67.68
75051;BME280;63628;47.656;11.310;2023-04-10T02:57:05;95338.56;;;5.43;70.97
75051;BME280;63628;47.656;11.310;2023-04-10T02:59:32;95339.66;;;5.91;69.22
75051;BME280;63628;47.656;11.310;2023-04-10T03:01:58;95349.94;;;2.10;66.16
75051;BME280;63628;47.656;11.310;2023-04-10T03:04:25;95355.97;;;2.11;80.38
75051;BME280;63628;47.656;11.310;2023-04-10T03:06:52;95351.22;;;5.03;72.17
75051;BME280;63628;47.656;11.310;2023-04-10T03:09:19;95339.63;;;5.70;69.63
75051;BME280;63628;47.656;11.310;2023-04-10T03:11:46;95336.66;;;5.80;68.39
75051;BME280;63628;47.656;11.310;2023-04-10T03:14:14;95341.94;;;4.86;62.22
75051;BME280;63628;47.656;11.310;2023-04-10T03:16:41;95347.91;;;3.15;67.27
75051;BME280;63628;47.656;11.310;2023-04-10T03:19:07;95347.09;;;5.30;68.19
75051;BME280;63628;47.656;11.310;2023-04-10T03:21:34;95333.53;;;5.69;69.36
75051;BME280;63628;47.656;11.310;2023-04-10T03:24:01;95344.16;;;5.83;68.62
75051;BME280;63628;47.656;11.310;2023-04-10T03:26:28;95334.47;;;5.83;67.89
75051;BME280;63628;47.656;11.310;2023-04-10T03:28:54;95337.75;;;5.85;67.96
75051;BME280;63628;47.656;11.310;2023-04-10T03:31:22;95332.22;;;5.80;67.91
75051;BME280;63628;47.656;11.310;2023-04-10T03:33:49;95345.09;;;5.90;68.15
75051;BME280;63628;47.656;11.310;2023-04-10T03:36:16;95343.81;;;5.86;68.05
75051;BME280;63628;47.656;11.310;2023-04-10T03:38:43;95339.19;;;5.88;67.92
75051;BME280;63628;47.656;11.310;2023-04-10T03:41:10;95342.00;;;5.86;67.96
75051;BME280;63628;47.656;11.310;2023-04-10T03:43:38;95345.09;;;5.90;67.88
75051;BME280;63628;47.656;11.310;2023-04-10T03:46:05;95329.88;;;5.85;68.20
75051;BME280;63628;47.656;11.310;2023-04-10T03:48:36;95337.38;;;5.88;67.33
75051;BME280;63628;47.656;11.310;2023-04-10T03:51:03;95337.09;;;5.83;68.11
75051;BME280;63628;47.656;11.310;2023-04-10T03:53:29;95336.91;;;5.85;67.89
75051;BME280;63628;47.656;11.310;2023-04-10T03:56:01;95342.72;;;5.80;67.40
75051;BME280;63628;47.656;11.310;2023-04-10T03:58:28;95344.78;;;5.85;67.15
75051;BME280;63628;47.656;11.310;2023-04-10T04:00:55;95345.72;;;5.77;67.20
75051;BME280;63628;47.656;11.310;2023-04-10T04:03:21;95347.34;;;5.78;67.77
75051;BME280;63628;47.656;11.310;2023-04-10T04:05:50;95350.69;;;5.87;67.42
75051;BME280;63628;47.656;11.310;2023-04-10T04:08:17;95338.84;;;5.76;67.97
75051;BME280;63628;47.656;11.310;2023-04-10T04:10:44;95348.25;;;5.64;61.89
75051;BME280;63628;47.656;11.310;2023-04-10T04:13:11;95349.25;;;5.63;68.15
75051;BME280;63628;47.656;11.310;2023-04-10T04:15:37;95352.19;;;5.74;67.62
75051;BME280;63628;47.656;11.310;2023-04-10T04:18:04;95350.56;;;5.73;68.09
75051;BME280;63628;47.656;11.310;2023-04-10T04:20:33;95345.31;;;5.73;68.21
75051;BME280;63628;47.656;11.310;2023-04-10T04:23:01;95344.69;;;5.71;67.71
75051;BME280;63628;47.656;11.310;2023-04-10T04:25:27;95340.56;;;5.41;63.71
75051;BME280;63628;47.656;11.310;2023-04-10T04:27:54;95340.19;;;5.65;68.12
75051;BME280;63628;47.656;11.310;2023-04-10T04:30:21;95334.41;;;5.77;67.05
75051;BME280;63628;47.656;11.310;2023-04-10T04:32:47;95339.41;;;5.71;67.95
75051;BME280;63628;47.656;11.310;2023-04-10T04:35:14;95352.72;;;3.34;60.08
75051;BME280;63628;47.656;11.310;2023-04-10T04:37:41;95342.47;;;4.23;71.90
75051;BME280;63628;47.656;11.310;2023-04-10T04:40:10;95342.47;;;5.32;68.77
75051;BME280;63628;47.656;11.310;2023-04-10T04:42:36;95346.69;;;5.48;66.77
75051;BME280;63628;47.656;11.310;2023-04-10T04:45:04;95346.44;;;4.92;69.24
75051;BME280;63628;47.656;11.310;2023-04-10T04:47:30;95339.38;;;5.44;68.70
75051;BME280;63628;47.656;11.310;2023-04-10T04:49:57;95350.63;;;3.53;57.46
75051;BME280;63628;47.656;11.310;2023-04-10T04:52:24;95358.69;;;4.56;71.36
75051;BME280;63628;47.656;11.310;2023-04-10T04:54:51;95351.97;;;5.33;68.34
75051;BME280;63628;47.656;11.310;2023-04-10T04:57:20;95359.03;;;4.38;69.21
75051;BME280;63628;47.656;11.310;2023-04-10T04:59:46;95350.53;;;5.31;67.85
75051;BME280;63628;47.656;11.310;2023-04-10T05:02:13;95353.94;;;5.46;66.77
75051;BME280;63628;47.656;11.310;2023-04-10T05:04:40;95356.75;;;5.45;67.57
75051;BME280;63628;47.656;11.310;2023-04-10T05:07:07;95363.28;;;2.23;66.01
75051;BME280;63628;47.656;11.310;2023-04-10T05:09:33;95379.19;;;-0.04;74.21
75051;BME280;63628;47.656;11.310;2023-04-10T05:12:00;95368.41;;;3.34;76.39
75051;BME280;63628;47.656;11.310;2023-04-10T05:14:29;95365.84;;;4.62;70.13
75051;BME280;63628;47.656;11.310;2023-04-10T05:16:55;95365.34;;;5.02;69.43
75051;BME280;63628;47.656;11.310;2023-04-10T05:19:22;95363.03;;;5.14;68.61
75051;BME280;63628;47.656;11.310;2023-04-10T05:21:48;95352.19;;;5.17;68.28
75051;BME280;63628;47.656;11.310;2023-04-10T05:24:15;95364.34;;;2.62;68.28
75051;BME280;63628;47.656;11.310;2023-04-10T05:26:42;95369.03;;;3.36;74.69
75051;BME280;63628;47.656;11.310;2023-04-10T05:29:08;95364.38;;;3.69;71.29
75051;BME280;63628;47.656;11.310;2023-04-10T05:31:37;95352.88;;;4.90;69.74
75051;BME280;63628;47.656;11.310;2023-04-10T05:34:04;95358.28;;;5.03;68.74
75051;BME280;63628;47.656;11.310;2023-04-10T05:36:31;95362.56;;;4.45;69.81
75051;BME280;63628;47.656;11.310;2023-04-10T05:38:58;95364.53;;;5.02;69.44
75051;BME280;63628;47.656;11.310;2023-04-10T05:41:24;95381.53;;;3.49;71.20
75051;BME280;63628;47.656;11.310;2023-04-10T05:43:51;95379.66;;;3.04;73.22
75051;BME280;63628;47.656;11.310;2023-04-10T05:46:17;95368.06;;;2.59;76.43
75051;BME280;63628;47.656;11.310;2023-04-10T05:48:45;95371.09;;;3.87;72.25
75051;BME280;63628;47.656;11.310;2023-04-10T05:51:12;95375.41;;;3.03;73.09
75051;BME280;63628;47.656;11.310;2023-04-10T05:53:39;95374.94;;;2.99;76.39
75051;BME280;63628;47.656;11.310;2023-04-10T05:56:06;95384.91;;;3.35;74.42
75051;BME280;63628;47.656;11.310;2023-04-10T05:58:33;95381.78;;;4.23;70.24
75051;BME280;63628;47.656;11.310;2023-04-10T06:01:00;95383.44;;;3.32;74.34
75051;BME280;63628;47.656;11.310;2023-04-10T06:03:26;95376.28;;;4.47;69.16
75051;BME280;63628;47.656;11.310;2023-04-10T06:05:56;95376.00;;;4.42;71.39
75051;BME280;63628;47.656;11.310;2023-04-10T06:08:23;95383.00;;;4.64;69.54
75051;BME280;63628;47.656;11.310;2023-04-10T06:10:50;95384.53;;;4.73;68.09
75051;BME280;63628;47.656;11.310;2023-04-10T06:13:17;95382.53;;;5.41;70.38
75051;BME280;63628;47.656;11.310;2023-04-10T06:15:44;95387.25;;;5.67;69.58
75051;BME280;63628;47.656;11.310;2023-04-10T06:18:10;95384.38;;;5.62;71.11
75051;BME280;63628;47.656;11.310;2023-04-10T06:20:37;95373.69;;;5.85;71.04
75051;BME280;63628;47.656;11.310;2023-04-10T06:23:05;95369.03;;;6.29;73.35
75051;BME280;63628;47.656;11.310;2023-04-10T06:25:37;95375.56;;;5.69;72.14
75051;BME280;63628;47.656;11.310;2023-04-10T06:28:04;95374.00;;;6.18;70.14
75051;BME280;63628;47.656;11.310;2023-04-10T06:30:30;95378.41;;;5.32;67.67
75051;BME280;63628;47.656;11.310;2023-04-10T06:32:59;95369.78;;;6.79;68.46
75051;BME280;63628;47.656;11.310;2023-04-10T06:35:26;95360.25;;;7.19;67.79
75051;BME280;63628;47.656;11.310;2023-04-10T06:37:53;95366.41;;;7.40;66.57
75051;BME280;63628;47.656;11.310;2023-04-10T06:40:21;95356.69;;;7.47;66.09
75051;BME280;63628;47.656;11.310;2023-04-10T06:42:47;95355.09;;;7.66;65.87
75051;BME280;63628;47.656;11.310;2023-04-10T06:45:14;95363.69;;;8.14;63.64
75051;BME280;63628;47.656;11.310;2023-04-10T06:47:41;95355.78;;;7.94;63.73
75051;BME280;63628;47.656;11.310;2023-04-10T06:50:08;95350.25;;;7.62;63.24
75051;BME280;63628;47.656;11.310;2023-04-10T06:52:36;95346.25;;;8.13;63.33
75051;BME280;63628;47.656;11.310;2023-04-10T06:55:04;95343.41;;;8.08;62.91
75051;BME280;63628;47.656;11.310;2023-04-10T06:57:32;95337.50;;;8.32;63.91
75051;BME280;63628;47.656;11.310;2023-04-10T06:59:58;95338.13;;;8.08;63.99
75051;BME280;63628;47.656;11.310;2023-04-10T07:02:25;95342.50;;;7.48;68.17
75051;BME280;63628;47.656;11.310;2023-04-10T07:04:52;95325.72;;;8.74;63.08
75051;BME280;63628;47.656;11.310;2023-04-10T07:07:19;95329.00;;;7.03;63.50
75051;BME280;63628;47.656;11.310;2023-04-10T07:09:46;95329.69;;;6.43;66.58
75051;BME280;63628;47.656;11.310;2023-04-10T07:12:12;95321.63;;;5.88;67.42
75051;BME280;63628;47.656;11.310;2023-04-10T07:14:40;95330.44;;;6.64;70.63
75051;BME280;63628;47.656;11.310;2023-04-10T07:17:07;95327.97;;;5.79;67.50
75051;BME280;63628;47.656;11.310;2023-04-10T07:19:34;95321.00;;;5.65;67.38
75051;BME280;63628;47.656;11.310;2023-04-10T07:22:01;95314.50;;;5.61;67.91
75051;BME280;63628;47.656;11.310;2023-04-10T07:24:27;95313.69;;;5.60;68.37
75051;BME280;63628;47.656;11.310;2023-04-10T07:26:54;95314.13;;;5.64;67.64
75051;BME280;63628;47.656;11.310;2023-04-10T07:29:22;95318.13;;;5.60;68.04
75051;BME280;63628;47.656;11.310;2023-04-10T07:31:50;95316.50;;;5.59;68.39
75051;BME280;63628;47.656;11.310;2023-04-10T07:34:17;95313.69;;;5.60;68.54
75051;BME280;63628;47.656;11.310;2023-04-10T07:36:44;95321.38;;;5.62;68.09
75051;BME280;63628;47.656;11.310;2023-04-10T07:39:11;95323.19;;;5.61;67.93
75051;BME280;63628;47.656;11.310;2023-04-10T07:41:38;95314.13;;;5.64;67.84
75051;BME280;63628;47.656;11.310;2023-04-10T07:44:05;95317.75;;;5.63;68.28
75051;BME280;63628;47.656;11.310;2023-04-10T07:46:32;95319.22;;;6.90;72.26
75051;BME280;63628;47.656;11.310;2023-04-10T07:49:00;95308.09;;;6.47;70.60
75051;BME280;63628;47.656;11.310;2023-04-10T07:51:26;95306.50;;;8.14;66.90
75051;BME280;63628;47.656;11.310;2023-04-10T07:53:54;95306.22;;;6.07;67.12
75051;BME280;63628;47.656;11.310;2023-04-10T07:56:21;95300.88;;;6.56;64.89
75051;BME280;63628;47.656;11.310;2023-04-10T07:58:50;95301.59;;;5.87;67.25
75051;BME280;63628;47.656;11.310;2023-04-10T08:01:17;95301.63;;;7.78;62.72
75051;BME280;63628;47.656;11.310;2023-04-10T08:03:45;95298.88;;;5.95;67.88
75051;BME280;63628;47.656;11.310;2023-04-10T08:06:14;95310.84;;;5.83;68.60
75051;BME280;63628;47.656;11.310;2023-04-10T08:08:41;95301.97;;;5.84;67.97
75051;BME280;63628;47.656;11.310;2023-04-10T08:11:21;95295.09;;;7.41;62.57
75051;BME280;63628;47.656;11.310;2023-04-10T08:13:48;95299.38;;;6.81;66.45
75051;BME280;63628;47.656;11.310;2023-04-10T08:16:18;95285.75;;;9.22;57.26
75051;BME280;63628;47.656;11.310;2023-04-10T08:18:45;95280.72;;;10.88;58.50
75051;BME280;63628;47.656;11.310;2023-04-10T08:21:13;95265.88;;;13.06;48.59
75051;BME280;63628;47.656;11.310;2023-04-10T08:23:40;95264.81;;;13.75;46.73
75051;BME280;63628;47.656;11.310;2023-04-10T08:26:07;95278.50;;;12.87;43.41
75051;BME280;63628;47.656;11.310;2023-04-10T08:28:33;95274.84;;;12.29;48.07
75051;BME280;63628;47.656;11.310;2023-04-10T08:31:00;95274.00;;;11.64;47.67
75051;BME280;63628;47.656;11.310;2023-04-10T08:33:26;95263.47;;;14.40;43.82
75051;BME280;63628;47.656;11.310;2023-04-10T08:35:53;95271.84;;;12.02;45.36
75051;BME280;63628;47.656;11.310;2023-04-10T08:38:21;95277.19;;;9.90;58.17
75051;BME280;63628;47.656;11.310;2023-04-10T08:40:50;95268.16;;;13.14;39.91
75051;BME280;63628;47.656;11.310;2023-04-10T08:43:16;95272.34;;;13.21;42.83
75051;BME280;63628;47.656;11.310;2023-04-10T08:45:44;95272.91;;;12.36;43.15
75051;BME280;63628;47.656;11.310;2023-04-10T08:48:12;95267.81;;;12.47;43.70
75051;BME280;63628;47.656;11.310;2023-04-10T08:50:41;95268.16;;;10.47;47.87
75051;BME280;63628;47.656;11.310;2023-04-10T08:53:12;95267.94;;;10.67;51.26
75051;BME280;63628;47.656;11.310;2023-04-10T08:55:41;95268.66;;;11.10;44.89
75051;BME280;63628;47.656;11.310;2023-04-10T08:58:10;95263.03;;;13.36;42.32
75051;BME280;63628;47.656;11.310;2023-04-10T09:00:39;95260.41;;;12.72;41.32
75051;BME280;63628;47.656;11.310;2023-04-10T09:03:07;95268.72;;;12.17;44.82
75051;BME280;63628;47.656;11.310;2023-04-10T09:05:37;95268.44;;;10.57;48.01
75051;BME280;63628;47.656;11.310;2023-04-10T09:08:05;95274.19;;;10.72;44.21
75051;BME280;63628;47.656;11.310;2023-04-10T09:10:35;95262.75;;;14.83;41.81
75051;BME280;63628;47.656;11.310;2023-04-10T09:13:03;95259.22;;;14.77;36.87
75051;BME280;63628;47.656;11.310;2023-04-10T09:15:29;95260.78;;;15.17;38.02
75051;BME280;63628;47.656;11.310;2023-04-10T09:17:58;95262.09;;;13.58;36.32
75051;BME280;63628;47.656;11.310;2023-04-10T09:20:27;95249.75;;;15.30;35.17
75051;BME280;63628;47.656;11.310;2023-04-10T09:22:54;95249.31;;;14.95;39.18
75051;BME280;63628;47.656;11.310;2023-04-10T09:25:32;95254.13;;;15.63;37.20
75051;BME280;63628;47.656;11.310;2023-04-10T09:28:00;95251.31;;;15.53;36.93
75051;BME280;63628;47.656;11.310;2023-04-10T09:30:36;95252.97;;;16.13;38.97
75051;BME280;63628;47.656;11.310;2023-04-10T09:33:20;95249.78;;;15.35;36.04
75051;BME280;63628;47.656;11.310;2023-04-10T09:35:47;95242.97;;;16.72;37.53
75051;BME280;63628;47.656;11.310;2023-04-10T09:38:15;95241.69;;;16.06;35.34
75051;BME280;63628;47.656;11.310;2023-04-10T09:40:42;95230.97;;;16.80;35.58
75051;BME280;63628;47.656;11.310;2023-04-10T09:43:17;95229.69;;;17.60;35.15
75051;BME280;63628;47.656;11.310;2023-04-10T09:45:49;95229.81;;;17.18;35.20
75051;BME280;63628;47.656;11.310;2023-04-10T09:48:17;95226.91;;;17.30;36.58
75051;BME280;63628;47.656;11.310;2023-04-10T09:50:44;95230.34;;;17.10;36.16
75051;BME280;63628;47.656;11.310;2023-04-10T09:53:12;95220.91;;;18.05;37.55
75051;BME280;63628;47.656;11.310;2023-04-10T09:55:39;95225.50;;;14.88;42.34
75051;BME280;63628;47.656;11.310;2023-04-10T09:58:07;95217.91;;;16.41;37.86
75051;BME280;63628;47.656;11.310;2023-04-10T10:00:38;95215.22;;;15.45;39.67
75051;BME280;63628;47.656;11.310;2023-04-10T10:03:09;95209.03;;;16.73;40.26
75051;BME280;63628;47.656;11.310;2023-04-10T10:05:39;95208.84;;;17.98;42.19
75051;BME280;63628;47.656;11.310;2023-04-10T10:08:07;95198.19;;;17.00;47.04
75051;BME280;63628;47.656;11.310;2023-04-10T10:10:36;95184.91;;;18.73;35.26
75051;BME280;63628;47.656;11.310;2023-04-10T10:13:04;95191.94;;;17.57;38.44
75051;BME280;63628;47.656;11.310;2023-04-10T10:15:35;95198.50;;;13.40;47.47
75051;BME280;63628;47.656;11.310;2023-04-10T10:18:15;95208.56;;;11.23;54.00
75051;BME280;63628;47.656;11.310;2023-04-10T10:20:44;95204.28;;;11.10;55.20
75051;BME280;63628;47.656;11.310;2023-04-10T10:23:11;95185.53;;;14.88;45.80
75051;BME280;63628;47.656;11.310;2023-04-10T10:25:39;95184.47;;;14.89;44.11
75051;BME280;63628;47.656;11.310;2023-04-10T10:28:06;95171.00;;;17.33;36.95
75051;BME280;63628;47.656;11.310;2023-04-10T10:30:33;95170.03;;;17.85;37.13
75051;BME280;63628;47.656;11.310;2023-04-10T10:33:02;95172.59;;;14.75;44.84
75051;BME280;63628;47.656;11.310;2023-04-10T10:35:33;95168.09;;;14.20;45.19
75051;BME280;63628;47.656;11.310;2023-04-10T10:38:01;95157.88;;;18.64;38.83
75051;BME280;63628;47.656;11.310;2023-04-10T10:40:30;95152.41;;;18.84;34.48
75051;BME280;63628;47.656;11.310;2023-04-10T10:42:59;95150.94;;;17.31;34.35
75051;BME280;63628;47.656;11.310;2023-04-10T10:45:35;95147.34;;;18.88;34.95
75051;BME280;63628;47.656;11.310;2023-04-10T10:48:03;95146.28;;;18.79;34.41
75051;BME280;63628;47.656;11.310;2023-04-10T10:50:52;95140.25;;;18.32;35.28
75051;BME280;63628;47.656;11.310;2023-04-10T10:53:32;95147.28;;;15.85;32.72
75051;BME280;63628;47.656;11.310;2023-04-10T10:56:34;95137.41;;;14.73;37.88
75051;BME280;63628;47.656;11.310;2023-04-10T10:59:01;95135.94;;;12.92;48.33
75051;BME280;63628;47.656;11.310;2023-04-10T11:01:28;95126.44;;;16.71;35.39
75051;BME280;63628;47.656;11.310;2023-04-10T11:03:55;95121.00;;;18.05;32.95
75051;BME280;63628;47.656;11.310;2023-04-10T11:06:51;95115.91;;;18.03;31.89
75051;BME280;63628;47.656;11.310;2023-04-10T11:09:46;95114.00;;;17.23;36.01
75051;BME280;63628;47.656;11.310;2023-04-10T11:12:14;95104.44;;;15.06;43.14
75051;BME280;63628;47.656;11.310;2023-04-10T11:14:42;95111.16;;;12.58;51.05
75051;BME280;63628;47.656;11.310;2023-04-10T11:17:10;95091.22;;;18.12;36.73
75051;BME280;63628;47.656;11.310;2023-04-10T11:19:56;95105.16;;;17.12;37.27
75051;BME280;63628;47.656;11.310;2023-04-10T11:22:26;95100.63;;;14.97;33.89
75051;BME280;63628;47.656;11.310;2023-04-10T11:24:59;95099.81;;;17.27;34.43
75051;BME280;63628;47.656;11.310;2023-04-10T11:27:41;95088.31;;;18.83;33.88
75051;BME280;63628;47.656;11.310;2023-04-10T11:30:33;95087.69;;;19.06;35.25
75051;BME280;63628;47.656;11.310;2023-04-10T11:33:01;95084.31;;;17.29;34.87
75051;BME280;63628;47.656;11.310;2023-04-10T11:35:29;95077.84;;;13.96;35.83
75051;BME280;63628;47.656;11.310;2023-04-10T11:38:15;95077.41;;;14.05;36.42
75051;BME280;63628;47.656;11.310;2023-04-10T11:40:59;95074.75;;;14.43;43.41
75051;BME280;63628;47.656;11.310;2023-04-10T11:43:27;95066.03;;;16.75;34.59
75051;BME280;63628;47.656;11.310;2023-04-10T11:46:01;95061.28;;;17.89;33.42
75051;BME280;63628;47.656;11.310;2023-04-10T11:48:29;95059.09;;;16.12;32.25
75051;BME280;63628;47.656;11.310;2023-04-10T11:50:56;95060.56;;;13.99;46.08
75051;BME280;63628;47.656;11.310;2023-04-10T11:53:24;95054.06;;;15.04;44.44
75051;BME280;63628;47.656;11.310;2023-04-10T11:55:52;95062.47;;;13.82;46.96
75051;BME280;63628;47.656;11.310;2023-04-10T11:58:23;95049.63;;;14.88;42.67
75051;BME280;63628;47.656;11.310;2023-04-10T12:00:57;95047.44;;;14.14;47.02
75051;BME280;63628;47.656;11.310;2023-04-10T12:03:34;95045.19;;;16.88;35.02
75051;BME280;63628;47.656;11.310;2023-04-10T12:06:02;95043.88;;;15.65;32.85
75051;BME280;63628;47.656;11.310;2023-04-10T12:08:31;95047.94;;;15.41;33.13
75051;BME280;63628;47.656;11.310;2023-04-10T12:10:58;95043.44;;;14.55;35.27
75051;BME280;63628;47.656;11.310;2023-04-10T12:13:25;95037.59;;;16.39;35.84
75051;BME280;63628;47.656;11.310;2023-04-10T12:15:53;95039.03;;;16.77;37.55
75051;BME280;63628;47.656;11.310;2023-04-10T12:18:20;95043.00;;;14.20;47.84
75051;BME280;63628;47.656;11.310;2023-04-10T12:20:47;95040.94;;;16.14;37.94
75051;BME280;63628;47.656;11.310;2023-04-10T12:23:17;95032.56;;;16.58;37.13
75051;BME280;63628;47.656;11.310;2023-04-10T12:25:45;95034.69;;;16.56;37.40
75051;BME280;63628;47.656;11.310;2023-04-10T12:28:16;95044.66;;;13.27;50.72
75051;BME280;63628;47.656;11.310;2023-04-10T12:30:46;95036.41;;;14.98;40.80
75051;BME280;63628;47.656;11.310;2023-04-10T12:33:12;95040.47;;;14.52;46.63
75051;BME280;63628;47.656;11.310;2023-04-10T12:35:39;95033.81;;;15.08;37.81
75051;BME280;63628;47.656;11.310;2023-04-10T12:38:08;95033.75;;;14.98;38.11
75051;BME280;63628;47.656;11.310;2023-04-10T12:40:34;95030.97;;;15.20;39.49
75051;BME280;63628;47.656;11.310;2023-04-10T12:43:02;95026.16;;;15.17;40.45
75051;BME280;63628;47.656;11.310;2023-04-10T12:45:41;95030.19;;;14.93;36.46
75051;BME280;63628;47.656;11.310;2023-04-10T12:48:08;95033.75;;;14.98;36.16
75051;BME280;63628;47.656;11.310;2023-04-10T12:50:45;95027.22;;;15.16;38.29
75051;BME280;63628;47.656;11.310;2023-04-10T12:53:12;95026.81;;;14.70;37.67
75051;BME280;63628;47.656;11.310;2023-04-10T12:55:40;95026.69;;;15.14;37.78
75051;BME280;63628;47.656;11.310;2023-04-10T12:58:18;95028.22;;;14.51;44.07
75051;BME280;63628;47.656;11.310;2023-04-10T13:00:46;95022.91;;;14.83;39.25
75051;BME280;63628;47.656;11.310;2023-04-10T13:03:13;95024.31;;;14.90;39.05
75051;BME280;63628;47.656;11.310;2023-04-10T13:05:39;95029.25;;;14.28;45.47